Time;durP1;ratioP1;P1;durP2;ratioP2;P2;SDS_P1;SDS_P2;PMS_P1;PMS_P2;Temp;Humidity;BMP_temperature;BMP_pressure;BME280_temperature;BME280_humidity;BME280_pressure;Samples;Min_cycle;Max_cycle;Signal;HPM_P1;HPM_P2
2022/10/28 00:01:27;;;;;;;14.32;8.07;;;;;;;14.50;95.91;101704.97;5025639;28;20030;-75
2022/10/28 00:03:59;;;;;;;15.02;7.95;;;;;;;14.50;96.04;101712.81;5023441;28;20058;-75
2022/10/28 00:06:27;;;;;;;15.95;8.40;;;;;;;14.43;96.56;101711.66;5007521;28;20494;-75
2022/10/28 00:08:53;;;;;;;13.95;8.25;;;;;;;14.41;96.47;101709.19;5013751;28;20536;-76
2022/10/28 00:11:24;;;;;;;15.18;11.13;;;;;;;14.30;96.62;101711.84;5008660;28;20021;-76
2022/10/28 00:13:52;;;;;;;13.57;7.72;;;;;;;14.35;96.67;101715.72;5015553;28;20067;-76
2022/10/28 00:16:26;;;;;;;11.57;7.32;;;;;;;14.39;96.31;101710.25;5035921;28;20067;-75
2022/10/28 00:18:52;;;;;;;14.68;8.90;;;;;;;14.29;96.84;101705.81;5025864;28;20041;-75
2022/10/28 00:21:24;;;;;;;14.48;9.90;;;;;;;14.28;97.32;101712.00;5027070;28;20036;-75
2022/10/28 00:23:50;;;;;;;16.17;9.52;;;;;;;14.21;97.14;101697.78;5032004;28;20515;-75
2022/10/28 00:26:22;;;;;;;13.75;7.47;;;;;;;14.30;96.94;101704.03;5022616;28;20030;-75
2022/10/28 00:28:53;;;;;;;15.98;10.48;;;;;;;14.15;97.18;101708.72;5033569;28;20366;-75
2022/10/28 00:31:20;;;;;;;14.35;8.60;;;;;;;14.23;97.10;101701.09;5012311;28;20049;-76
2022/10/28 00:33:46;;;;;;;15.15;10.02;;;;;;;14.14;97.82;101704.47;5034387;28;20029;-75
2022/10/28 00:36:15;;;;;;;16.27;7.88;;;;;;;14.17;97.67;101706.84;5024950;28;20081;-75
2022/10/28 00:38:42;;;;;;;14.10;7.53;;;;;;;14.21;97.21;101707.38;5034681;28;20083;-75
2022/10/28 00:41:09;;;;;;;14.05;8.40;;;;;;;14.14;97.25;101711.47;5028429;28;20060;-75
2022/10/28 00:43:41;;;;;;;15.77;9.38;;;;;;;14.06;97.45;101714.72;5023012;28;20504;-79
2022/10/28 00:46:33;;;;;;;14.82;9.48;;;;;;;14.07;97.52;101706.75;5023445;28;20044;-75
2022/10/28 00:49:20;;;;;;;14.85;10.15;;;;;;;14.02;97.71;101702.88;5009888;28;20128;-75
2022/10/28 00:51:51;;;;;;;12.43;8.25;;;;;;;14.05;97.64;101700.03;5017800;28;20049;-75
2022/10/28 00:54:18;;;;;;;13.15;8.20;;;;;;;14.02;97.56;101702.88;5025985;28;20049;-75
2022/10/28 00:56:47;;;;;;;15.10;9.05;;;;;;;13.96;97.74;101696.38;5026758;28;20036;-75
2022/10/28 00:59:19;;;;;;;13.32;9.10;;;;;;;13.94;97.90;101700.06;5015372;28;20591;-75
2022/10/28 01:01:45;;;;;;;17.92;9.25;;;;;;;13.86;97.70;101689.41;5030156;28;20068;-76
2022/10/28 01:04:12;;;;;;;14.45;9.82;;;;;;;13.85;97.39;101690.38;5025416;28;20057;-75
2022/10/28 01:06:38;;;;;;;13.82;8.75;;;;;;;13.85;97.50;101669.53;5034665;28;20029;-76
2022/10/28 01:09:03;;;;;;;14.13;9.73;;;;;;;13.87;98.05;101667.59;5027583;28;20021;-76
2022/10/28 01:12:01;;;;;;;16.83;10.65;;;;;;;13.94;98.05;101674.00;5026121;28;20029;-75
2022/10/28 01:14:50;;;;;;;12.45;8.20;;;;;;;13.95;98.46;101660.00;5015046;28;20098;-75
2022/10/28 01:17:27;;;;;;;16.00;10.23;;;;;;;13.93;97.91;101656.66;5029752;28;20025;-75
2022/10/28 01:20:14;;;;;;;13.52;7.70;;;;;;;13.98;98.14;101659.72;5024193;28;20108;-75
2022/10/28 01:22:42;;;;;;;12.45;8.00;;;;;;;13.95;98.84;101657.38;5026076;28;20114;-75
2022/10/28 01:25:42;;;;;;;15.55;8.32;;;;;;;13.99;98.19;101656.16;5027171;28;20071;-75
2022/10/28 01:28:28;;;;;;;14.68;8.30;;;;;;;14.01;98.31;101655.09;5035020;28;20021;-76
2022/10/28 01:31:20;;;;;;;14.40;9.07;;;;;;;14.04;97.81;101654.00;5026497;28;20041;-76
2022/10/28 01:33:50;;;;;;;16.73;8.77;;;;;;;14.02;97.96;101646.31;5020508;28;20029;-75
2022/10/28 01:36:44;;;;;;;15.63;10.25;;;;;;;14.05;98.13;101653.06;5018904;28;20024;-75
2022/10/28 01:39:27;;;;;;;13.65;8.05;;;;;;;14.07;98.18;101648.53;5019984;28;20048;-75
2022/10/28 01:41:56;;;;;;;17.88;8.50;;;;;;;14.06;98.45;101644.28;5026776;28;20060;-76
2022/10/28 01:44:40;;;;;;;12.43;7.45;;;;;;;14.10;98.28;101643.06;5018706;28;20108;-75
2022/10/28 01:47:15;;;;;;;13.80;8.25;;;;;;;14.06;98.36;101641.69;5021245;28;20037;-75
2022/10/28 01:49:53;;;;;;;15.25;11.15;;;;;;;13.98;98.68;101644.06;5006574;28;20692;-75
2022/10/28 01:52:23;;;;;;;14.57;8.32;;;;;;;14.03;98.34;101636.69;5007105;28;20077;-75
2022/10/28 01:55:11;;;;;;;13.82;8.15;;;;;;;14.05;98.50;101640.84;5018398;28;20516;-76
2022/10/28 01:57:40;;;;;;;13.05;7.50;;;;;;;14.07;98.11;101643.31;5006873;28;20079;-79
2022/10/28 02:00:06;;;;;;;17.05;10.82;;;;;;;13.94;98.73;101637.47;5009710;28;20049;-75
2022/10/28 02:02:35;;;;;;;13.75;10.73;;;;;;;13.97;98.32;101632.00;5009200;28;20021;-75
2022/10/28 02:05:19;;;;;;;;;;;;;;;14.10;97.40;101637.84;5017458;28;20021;-76
2022/10/28 02:07:45;;;;;;;16.08;9.30;;;;;;;14.01;98.31;101625.56;5033727;28;19916;-76
2022/10/28 02:10:15;;;;;;;13.52;7.78;;;;;;;14.03;98.19;101628.88;5020155;28;20089;-75
2022/10/28 02:12:44;;;;;;;13.43;9.50;;;;;;;13.91;98.75;101614.25;5033766;28;20104;-75
2022/10/28 02:15:24;;;;;;;18.08;8.32;;;;;;;13.98;98.36;101628.44;5019185;28;20034;-75
2022/10/28 02:18:22;;;;;;;15.00;9.95;;;;;;;13.95;98.52;101623.47;5031665;28;20102;-76
2022/10/28 02:21:22;;;;;;;14.23;7.85;;;;;;;14.00;98.17;101626.53;5027806;28;20120;-75
2022/10/28 02:23:55;;;;;;;14.93;8.13;;;;;;;13.94;98.54;101616.63;5005332;28;20037;-76
2022/10/28 02:26:34;;;;;;;14.65;8.60;;;;;;;13.92;98.92;101623.72;5025134;28;20029;-76
2022/10/28 02:29:06;;;;;;;17.83;10.55;;;;;;;13.86;98.61;101629.44;5025871;28;20025;-75
2022/10/28 02:31:39;;;;;;;17.20;8.65;;;;;;;13.87;98.86;101631.09;5006126;28;20423;-75
2022/10/28 02:34:10;;;;;;;14.00;10.05;;;;;;;13.78;99.00;101628.31;5018771;28;20071;-75
2022/10/28 02:36:40;;;;;;;17.75;9.50;;;;;;;13.85;98.62;101627.78;5020087;28;20485;-75
2022/10/28 02:39:06;;;;;;;17.38;9.05;;;;;;;13.82;98.76;101632.31;5019921;28;20476;-75
2022/10/28 02:41:34;;;;;;;15.60;9.07;;;;;;;13.81;98.48;101622.81;5029607;28;20372;-76
2022/10/28 02:44:06;;;;;;;14.50;9.82;;;;;;;13.68;98.92;101611.75;5019258;28;20504;-77
2022/10/28 02:46:34;;;;;;;17.63;10.43;;;;;;;13.73;98.72;101609.59;5016842;28;20428;-75
2022/10/28 02:49:04;;;;;;;14.00;7.70;;;;;;;13.72;98.62;101607.13;5017525;28;20104;-75
2022/10/28 02:51:35;;;;;;;18.80;10.85;;;;;;;13.67;99.37;101625.75;5022575;28;20505;-75
2022/10/28 02:54:09;;;;;;;16.38;10.70;;;;;;;13.70;98.98;101617.66;5024881;28;20080;-75
2022/10/28 02:56:53;;;;;;;15.73;9.48;;;;;;;13.70;98.62;101619.44;5019052;28;20095;-75
2022/10/28 02:59:18;;;;;;;15.40;8.15;;;;;;;13.70;98.50;101615.06;5042807;28;20034;-76
2022/10/28 03:01:44;;;;;;;16.05;10.25;;;;;;;13.58;98.77;101610.84;5043955;28;20082;-75
2022/10/28 03:04:09;;;;;;;12.40;7.43;;;;;;;13.65;98.39;101612.03;5041897;28;20522;-75
2022/10/28 03:06:34;;;;;;;15.38;8.27;;;;;;;13.61;98.55;101610.63;5050108;28;20040;-75
2022/10/28 03:09:00;;;;;;;14.73;8.95;;;;;;;13.59;98.79;101611.69;5043236;28;20028;-75
2022/10/28 03:11:25;;;;;;;17.90;9.43;;;;;;;13.67;98.71;101617.94;5007074;28;20532;-77
2022/10/28 03:13:50;;;;;;;16.35;7.65;;;;;;;13.58;98.61;101600.44;5027962;28;20446;-75
2022/10/28 03:16:16;;;;;;;15.35;7.82;;;;;;;13.61;98.65;101608.00;5049601;28;20029;-76
2022/10/28 03:18:41;;;;;;;16.40;8.57;;;;;;;13.61;98.75;101610.63;5037425;28;20030;-76
2022/10/28 03:21:07;;;;;;;13.32;8.50;;;;;;;13.61;98.52;101615.81;5030776;28;20017;-75
2022/10/28 03:23:32;;;;;;;15.73;9.65;;;;;;;13.54;98.74;101617.28;5043336;28;20444;-75
2022/10/28 03:25:57;;;;;;;17.08;8.35;;;;;;;13.59;98.88;101602.09;5036351;28;20074;-75
2022/10/28 03:28:23;;;;;;;17.77;8.18;;;;;;;13.59;98.59;101609.94;5042491;28;20024;-75
2022/10/28 03:30:48;;;;;;;13.35;7.40;;;;;;;13.55;98.53;101600.69;5039642;28;20021;-75
2022/10/28 03:33:14;;;;;;;16.00;9.45;;;;;;;13.50;99.04;101603.66;5018769;28;20075;-78
2022/10/28 03:35:39;;;;;;;14.35;8.05;;;;;;;13.54;98.23;101601.66;5040915;28;20060;-75
2022/10/28 03:38:04;;;;;;;16.75;10.23;;;;;;;13.49;98.80;101596.81;5033850;28;20377;-78
2022/10/28 03:40:30;;;;;;;18.27;8.55;;;;;;;13.51;98.49;101594.06;5040388;28;20032;-76
2022/10/28 03:42:55;;;;;;;16.95;8.68;;;;;;;13.51;98.81;101594.06;5032299;28;20092;-75
2022/10/28 03:45:21;;;;;;;14.38;8.05;;;;;;;13.51;98.63;101594.06;5037353;28;20096;-76
2022/10/28 03:47:46;;;;;;;16.95;7.95;;;;;;;13.50;98.66;101598.47;5048088;28;20031;-76
2022/10/28 03:50:11;;;;;;;18.15;8.70;;;;;;;13.46;98.69;101594.44;5051623;28;20559;-75
2022/10/28 03:52:37;;;;;;;14.13;9.85;;;;;;;13.43;98.97;101586.06;5059108;28;20461;-76
2022/10/28 03:55:02;;;;;;;13.13;7.90;;;;;;;13.50;98.68;101592.41;5034425;28;20069;-75
2022/10/28 03:57:32;;;;;;;12.40;6.65;;;;;;;13.51;98.41;101594.06;5047291;28;20025;-75
2022/10/28 03:59:57;;;;;;;14.10;7.35;;;;;;;13.48;98.46;101589.13;5034694;28;20041;-75
2022/10/28 04:02:22;;;;;;;13.65;7.65;;;;;;;13.50;98.05;101584.59;5047837;28;20025;-76
2022/10/28 04:04:48;;;;;;;13.70;7.72;;;;;;;13.50;98.19;101587.22;5031963;28;20112;-78
2022/10/28 04:07:13;;;;;;;14.63;8.13;;;;;;;13.43;98.34;101578.25;5040137;28;20470;-75
2022/10/28 04:09:38;;;;;;;13.38;8.10;;;;;;;13.44;97.92;101582.50;5024450;28;20013;-75
2022/10/28 04:12:05;;;;;;;14.40;6.50;;;;;;;13.48;97.87;101594.34;5035058;28;20060;-75
2022/10/28 04:14:30;;;;;;;13.65;6.68;;;;;;;13.50;97.83;101587.22;5035014;28;20486;-75
2022/10/28 04:16:56;;;;;;;16.45;9.38;;;;;;;13.50;97.54;101592.41;5029493;28;20032;-76
2022/10/28 04:19:21;;;;;;;16.38;8.07;;;;;;;13.48;98.48;101583.91;5041740;28;20021;-75
2022/10/28 04:21:46;;;;;;;19.60;8.45;;;;;;;13.46;98.36;101580.59;5034474;28;20063;-74
2022/10/28 04:24:12;;;;;;;13.10;7.65;;;;;;;13.51;98.20;101588.84;5041145;28;20078;-75
2022/10/28 04:26:37;;;;;;;14.13;6.53;;;;;;;13.52;98.04;101591.31;5044803;28;20351;-75
2022/10/28 04:29:02;;;;;;;15.07;7.30;;;;;;;13.48;98.20;101594.34;5040675;28;20504;-75
2022/10/28 04:31:28;;;;;;;16.17;8.40;;;;;;;13.46;97.96;101596.22;5031635;28;20029;-76
2022/10/28 04:33:53;;;;;;;15.00;8.18;;;;;;;13.46;97.92;101591.00;5035676;28;20036;-75
2022/10/28 04:36:18;;;;;;;18.35;7.78;;;;;;;13.45;98.04;101578.94;5034104;28;20049;-76
2022/10/28 04:38:44;;;;;;;14.00;7.72;;;;;;;13.43;98.11;101592.09;5029434;28;20044;-74
2022/10/28 04:41:13;;;;;;;16.40;7.43;;;;;;;13.29;97.97;101559.31;5020341;28;20057;-75
2022/10/28 04:43:39;;;;;;;14.55;6.60;;;;;;;13.43;97.68;101583.44;5047524;28;20503;-75
2022/10/28 04:46:04;;;;;;;13.18;6.95;;;;;;;13.42;97.88;101579.16;5053937;28;20036;-75
2022/10/28 04:48:31;;;;;;;12.68;6.68;;;;;;;13.47;97.59;101592.66;5040848;28;20025;-76
2022/10/28 04:50:57;;;;;;;11.80;6.20;;;;;;;13.44;97.61;101591.13;5031267;28;20032;-75
2022/10/28 04:53:22;;;;;;;12.77;6.50;;;;;;;13.44;97.25;101587.72;5029981;28;20041;-75
2022/10/28 04:55:47;;;;;;;11.95;6.22;;;;;;;13.46;96.92;101591.84;5011155;28;20074;-75
2022/10/28 04:58:13;;;;;;;17.55;9.77;;;;;;;13.34;97.21;101586.78;5007678;28;20029;-75
2022/10/28 05:00:38;;;;;;;11.63;6.57;;;;;;;13.43;97.24;101593.88;5038674;28;20037;-75
2022/10/28 05:03:03;;;;;;;14.98;8.63;;;;;;;13.37;97.04;101582.19;5028716;28;20078;-75
2022/10/28 05:05:29;;;;;;;17.73;8.52;;;;;;;13.40;97.14;101591.50;5022014;28;20079;-75
2022/10/28 05:07:54;;;;;;;14.55;7.55;;;;;;;13.42;96.83;101582.63;5023016;28;20025;-75
2022/10/28 05:10:20;;;;;;;11.27;6.97;;;;;;;13.42;96.86;101587.84;5022315;28;20026;-75
2022/10/28 05:12:45;;;;;;;18.73;7.15;;;;;;;13.40;96.85;101588.91;5017812;28;20619;-75
2022/10/28 05:15:12;;;;;;;11.75;6.15;;;;;;;13.39;96.74;101589.84;5034422;28;20044;-74
2022/10/28 05:17:45;;;;;;;11.50;6.60;;;;;;;13.38;96.80;101577.78;5010650;28;20030;-74
2022/10/28 05:20:12;;;;;;;13.85;6.68;;;;;;;13.34;97.16;101582.41;5025813;28;20060;-74
2022/10/28 05:22:44;;;;;;;14.38;6.68;;;;;;;13.31;97.20;101571.44;5017552;28;20030;-74
2022/10/28 05:25:09;;;;;;;13.95;7.28;;;;;;;13.28;97.13;101573.31;5021418;28;20194;-75
2022/10/28 05:27:35;;;;;;;15.65;6.57;;;;;;;13.32;96.97;101578.28;5020448;28;20451;-75
2022/10/28 05:30:00;;;;;;;13.15;5.82;;;;;;;13.32;97.03;101562.66;5009155;28;20021;-75
2022/10/28 05:32:26;;;;;;;11.93;7.43;;;;;;;13.23;97.30;101580.66;5016694;28;20022;-75
2022/10/28 05:34:51;;;;;;;13.10;6.05;;;;;;;13.29;97.13;101569.75;5020463;28;20032;-74
2022/10/28 05:37:16;;;;;;;14.75;6.40;;;;;;;13.26;96.86;101564.81;5018430;28;20060;-75
2022/10/28 05:39:42;;;;;;;16.65;6.00;;;;;;;13.29;96.77;101556.72;5027088;28;20032;-74
2022/10/28 05:42:07;;;;;;;12.50;5.30;;;;;;;13.29;97.00;101569.75;5028199;28;20033;-76
2022/10/28 05:44:32;;;;;;;15.30;6.60;;;;;;;13.26;96.82;101567.41;5030428;28;20056;-76
2022/10/28 05:46:58;;;;;;;12.15;5.40;;;;;;;13.31;96.61;101568.81;5018869;28;20033;-77
2022/10/28 05:49:23;;;;;;;11.43;6.05;;;;;;;13.28;96.96;101578.53;5023779;28;20474;-76
2022/10/28 05:51:48;;;;;;;12.73;5.63;;;;;;;13.29;96.92;101574.97;5023890;28;20487;-75
2022/10/28 05:54:14;;;;;;;14.80;5.93;;;;;;;13.26;96.73;101569.19;5017081;28;20132;-76
2022/10/28 05:56:39;;;;;;;12.38;5.45;;;;;;;13.28;97.29;101573.31;5020865;28;20048;-75
2022/10/28 05:59:04;;;;;;;14.85;5.55;;;;;;;13.31;96.82;101579.25;5019416;28;20125;-75
2022/10/28 06:01:30;;;;;;;11.57;5.68;;;;;;;13.26;96.89;101564.81;5022141;28;20189;-76
2022/10/28 06:03:56;;;;;;;12.93;7.10;;;;;;;13.25;96.91;101563.16;5021670;28;20540;-75
2022/10/28 06:06:21;;;;;;;12.95;5.55;;;;;;;13.24;96.93;101551.06;5028538;28;20056;-76
2022/10/28 06:08:47;;;;;;;16.90;7.13;;;;;;;13.27;97.16;101566.44;5020579;28;20096;-75
2022/10/28 06:11:12;;;;;;;16.48;6.45;;;;;;;13.31;97.01;101572.25;5023718;28;20103;-76
2022/10/28 06:13:38;;;;;;;14.60;4.78;;;;;;;13.34;96.95;101571.16;5014264;28;20072;-79
2022/10/28 06:16:03;;;;;;;11.43;5.32;;;;;;;13.36;97.25;101579.66;5025009;28;20048;-78
2022/10/28 06:18:28;;;;;;;12.80;5.63;;;;;;;13.33;97.16;101564.31;5021013;28;20503;-75
2022/10/28 06:20:56;;;;;;;10.75;4.97;;;;;;;13.38;97.09;101572.56;5026255;28;20033;-76
2022/10/28 06:23:22;;;;;;;12.95;5.32;;;;;;;13.39;97.29;101563.81;5022731;28;20036;-76
2022/10/28 06:25:48;;;;;;;13.50;6.10;;;;;;;13.41;96.89;101567.09;5049710;28;20028;-76
2022/10/28 06:28:13;;;;;;;12.88;5.45;;;;;;;13.40;97.51;101581.91;5026725;28;20076;-76
2022/10/28 06:30:38;;;;;;;11.68;6.13;;;;;;;13.42;97.09;101584.38;5029017;28;20063;-76
2022/10/28 06:33:04;;;;;;;14.38;6.03;;;;;;;13.43;97.48;101580.84;5019217;28;20373;-76
2022/10/28 06:35:29;;;;;;;13.73;6.22;;;;;;;13.44;97.02;101582.50;5025198;28;20111;-75
2022/10/28 06:37:55;;;;;;;12.02;5.68;;;;;;;13.47;97.11;101587.44;5014340;28;20034;-77
2022/10/28 06:40:22;;;;;;;12.10;5.18;;;;;;;13.48;96.96;101584.75;5017446;28;20036;-75
2022/10/28 06:42:47;;;;;;;11.07;4.93;;;;;;;13.48;96.95;101584.75;5020755;28;20033;-76
2022/10/28 06:45:12;;;;;;;11.15;5.35;;;;;;;13.48;96.97;101579.53;5035746;28;20476;-75
2022/10/28 06:47:38;;;;;;;18.15;5.75;;;;;;;13.52;96.87;101585.28;5027686;28;20026;-75
2022/10/28 06:50:04;;;;;;;11.88;5.22;;;;;;;13.53;96.96;101586.94;5027677;28;20144;-76
2022/10/28 06:52:29;;;;;;;13.93;5.35;;;;;;;13.56;97.12;101586.69;5016737;28;20049;-76
2022/10/28 06:54:54;;;;;;;14.27;6.05;;;;;;;13.61;97.20;101591.53;5041625;28;20076;-76
2022/10/28 06:57:20;;;;;;;12.80;6.82;;;;;;;13.61;96.90;101592.38;5045558;28;20532;-76
2022/10/28 06:59:45;;;;;;;12.52;5.35;;;;;;;13.60;97.27;101577.69;5033179;28;20454;-76
2022/10/28 07:02:10;;;;;;;13.45;5.63;;;;;;;13.69;97.15;101589.13;5036521;28;20499;-77
2022/10/28 07:04:36;;;;;;;14.80;5.63;;;;;;;13.71;96.87;101590.66;5020697;28;20060;-75
2022/10/28 07:07:02;;;;;;;15.18;5.55;;;;;;;13.72;96.85;101597.53;5062330;28;20495;-76
2022/10/28 07:09:27;;;;;;;12.00;6.30;;;;;;;13.76;97.06;101604.16;5051704;28;20059;-77
2022/10/28 07:11:52;;;;;;;10.95;5.85;;;;;;;13.80;96.89;101605.53;5047056;28;20035;-76
2022/10/28 07:14:18;;;;;;;16.65;7.35;;;;;;;13.80;96.91;101602.91;5042474;28;20412;-77
2022/10/28 07:16:43;;;;;;;14.77;6.43;;;;;;;13.85;96.82;101606.94;5047110;28;20039;-77
2022/10/28 07:19:08;;;;;;;11.95;6.32;;;;;;;13.86;96.81;101598.16;5038056;28;20041;-76
2022/10/28 07:21:34;;;;;;;13.82;6.57;;;;;;;13.85;96.54;101588.69;5031099;28;20026;-76
2022/10/28 07:24:00;;;;;;;13.90;5.85;;;;;;;13.91;96.79;101601.22;5036929;28;20021;-77
2022/10/28 07:26:25;;;;;;;12.57;5.55;;;;;;;13.90;96.38;101600.38;5049497;28;20028;-76
2022/10/28 07:28:51;;;;;;;17.05;6.13;;;;;;;13.95;96.72;101602.63;5049795;28;20025;-76
2022/10/28 07:31:16;;;;;;;14.50;6.00;;;;;;;13.94;96.54;101595.75;5028017;28;20460;-76
2022/10/28 07:33:42;;;;;;;15.73;6.75;;;;;;;13.92;96.46;101585.44;5047323;28;20021;-75
2022/10/28 07:36:08;;;;;;;14.23;7.70;;;;;;;13.95;96.83;101589.56;5036295;28;20032;-76
2022/10/28 07:38:33;;;;;;;14.48;6.00;;;;;;;14.01;97.20;101602.09;5035426;28;20120;-76
2022/10/28 07:41:06;;;;;;;11.60;4.95;;;;;;;14.04;96.90;101597.44;5043695;28;20036;-76
2022/10/28 07:43:36;;;;;;;12.77;6.68;;;;;;;14.05;97.13;101600.91;5031625;28;20021;-80
2022/10/28 07:46:01;;;;;;;13.90;6.03;;;;;;;14.06;96.68;101608.59;5029617;28;20033;-76
2022/10/28 07:48:27;;;;;;;11.57;6.18;;;;;;;14.09;97.12;101604.88;5039596;28;20362;-76
2022/10/28 07:50:52;;;;;;;12.55;5.47;;;;;;;14.14;97.04;101610.53;5038922;28;20556;-75
2022/10/28 07:53:18;;;;;;;14.60;6.20;;;;;;;14.17;96.86;101605.09;5038545;28;20072;-75
2022/10/28 07:55:44;;;;;;;15.95;6.57;;;;;;;14.19;97.06;101594.50;5042090;28;20052;-76
2022/10/28 07:58:09;;;;;;;17.00;6.75;;;;;;;14.25;96.87;101597.41;5039693;28;20082;-77
2022/10/28 08:00:35;;;;;;;15.60;6.40;;;;;;;14.27;96.97;101598.09;5039950;28;20303;-76
2022/10/28 08:03:01;;;;;;;17.67;7.63;;;;;;;14.35;96.77;101606.13;5041878;28;20044;-76
2022/10/28 08:05:26;;;;;;;15.95;7.65;;;;;;;14.39;97.07;101609.28;5036305;28;20030;-76
2022/10/28 08:07:52;;;;;;;15.65;5.93;;;;;;;14.44;96.62;101601.06;5054453;28;20017;-76
2022/10/28 08:10:17;;;;;;;15.23;6.00;;;;;;;14.48;96.87;101597.28;5034005;28;20068;-76
2022/10/28 08:12:42;;;;;;;15.38;7.03;;;;;;;14.55;96.18;101601.00;5043047;28;20028;-76
2022/10/28 08:15:09;;;;;;;15.32;6.45;;;;;;;14.62;96.16;101604.72;5039024;28;20457;-76
2022/10/28 08:17:34;;;;;;;17.02;8.50;;;;;;;14.65;96.01;101596.66;5038704;28;20039;-80
2022/10/28 08:20:00;;;;;;;15.60;7.00;;;;;;;14.68;95.94;101596.41;5039970;28;20206;-76
2022/10/28 08:22:25;;;;;;;14.75;6.60;;;;;;;14.77;95.71;101605.19;5046287;28;20547;-77
2022/10/28 08:24:50;;;;;;;18.75;8.65;;;;;;;14.80;95.41;101589.28;5055201;28;20071;-78
2022/10/28 08:27:16;;;;;;;19.00;7.70;;;;;;;14.84;95.90;101596.69;5054351;28;20017;-76
2022/10/28 08:29:41;;;;;;;15.65;8.00;;;;;;;14.92;95.51;101597.84;5044072;28;20032;-75
2022/10/28 08:32:07;;;;;;;12.75;6.28;;;;;;;14.98;95.12;101613.78;5062350;28;20028;-78
2022/10/28 08:34:32;;;;;;;16.88;8.02;;;;;;;15.07;94.80;101612.13;5022085;28;20116;-76
2022/10/28 08:36:58;;;;;;;14.88;6.15;;;;;;;15.10;94.30;101611.88;5054273;28;20108;-75
2022/10/28 08:39:23;;;;;;;15.48;8.07;;;;;;;15.16;94.50;101610.50;5039044;28;20037;-77
2022/10/28 08:42:13;;;;;;;14.85;8.40;;;;;;;15.26;94.06;101616.59;5052448;28;20441;-75
2022/10/28 08:44:45;;;;;;;14.25;7.45;;;;;;;15.32;94.25;101624.69;5031502;28;20060;-76
2022/10/28 08:47:19;;;;;;;16.80;8.45;;;;;;;15.37;93.78;101614.66;5047818;28;20503;-77
2022/10/28 08:49:49;;;;;;;14.25;6.68;;;;;;;15.41;94.41;101620.44;5052191;28;20036;-75
2022/10/28 08:52:34;;;;;;;13.48;6.07;;;;;;;15.49;93.70;101623.19;5032812;28;20094;-76
2022/10/28 08:55:15;;;;;;;14.90;6.90;;;;;;;15.57;93.27;101625.94;5045798;28;20052;-75
2022/10/28 08:58:10;;;;;;;15.93;8.45;;;;;;;15.68;93.26;101622.38;5053347;28;20055;-76
2022/10/28 09:00:36;;;;;;;15.43;8.70;;;;;;;15.79;92.87;101606.53;5045518;28;20049;-76
2022/10/28 09:03:10;;;;;;;15.85;8.30;;;;;;;15.89;92.78;101609.97;5047867;28;20017;-75
2022/10/28 09:05:37;;;;;;;15.88;8.27;;;;;;;16.02;92.38;101614.09;5035918;28;20457;-75
2022/10/28 09:08:03;;;;;;;16.13;8.40;;;;;;;16.11;91.91;101607.97;5057647;28;20034;-77
2022/10/28 09:10:53;;;;;;;15.95;8.15;;;;;;;16.28;91.59;101596.75;5053420;28;20565;-76
2022/10/28 09:13:43;;;;;;;20.35;8.10;;;;;;;16.34;91.17;101604.03;5037916;28;20349;-76
2022/10/28 09:16:28;;;;;;;14.52;8.18;;;;;;;16.43;90.71;101616.28;5055997;28;20035;-76
2022/10/28 09:19:02;;;;;;;17.55;8.07;;;;;;;16.50;90.91;101619.16;5034855;28;20044;-76
2022/10/28 09:21:33;;;;;;;16.58;8.60;;;;;;;16.58;90.45;101631.53;5044988;28;20028;-77
2022/10/28 09:24:11;;;;;;;20.45;8.27;;;;;;;16.63;90.23;101618.81;5050645;28;20024;-78
2022/10/28 09:26:57;;;;;;;15.38;7.80;;;;;;;16.65;89.98;101614.25;5036339;28;20083;-77
2022/10/28 09:29:55;;;;;;;15.45;7.55;;;;;;;16.75;89.89;101628.19;5035619;28;20025;-76
2022/10/28 09:32:41;;;;;;;16.63;7.80;;;;;;;16.77;89.94;101614.94;5014491;28;20095;-76
2022/10/28 09:35:18;;;;;;;14.98;7.60;;;;;;;16.82;89.78;101610.06;5032649;28;20031;-77
2022/10/28 09:37:52;;;;;;;16.30;7.93;;;;;;;16.91;88.91;101612.63;5037875;28;20024;-77
2022/10/28 09:40:24;;;;;;;16.95;7.35;;;;;;;16.88;88.87;101623.41;5030263;28;20051;-78
2022/10/28 09:43:14;;;;;;;15.38;8.30;;;;;;;16.97;89.31;101633.03;5037877;28;20083;-76
2022/10/28 09:45:44;;;;;;;15.15;7.95;;;;;;;16.96;88.64;101620.88;5039010;28;20018;-76
2022/10/28 09:48:18;;;;;;;15.27;8.00;;;;;;;17.01;88.01;101630.09;5010500;28;20029;-76
2022/10/28 09:50:44;;;;;;;15.52;7.78;;;;;;;17.02;88.29;101631.72;5041053;28;20112;-76
2022/10/28 09:53:27;;;;;;;16.42;7.82;;;;;;;17.08;88.57;101628.53;5041734;28;20111;-76
2022/10/28 09:55:53;;;;;;;15.02;7.85;;;;;;;17.15;88.40;101621.75;5044704;28;20623;-75
2022/10/28 09:58:19;;;;;;;16.42;7.97;;;;;;;17.18;88.07;101622.25;5034916;28;20020;-75
2022/10/28 10:00:45;;;;;;;16.40;8.13;;;;;;;17.25;88.11;101620.66;5045254;28;20124;-76
2022/10/28 10:03:11;;;;;;;15.52;8.05;;;;;;;17.29;87.75;101621.22;5051080;28;20403;-75
2022/10/28 10:05:45;;;;;;;15.10;8.40;;;;;;;17.33;87.85;101627.00;5039399;28;20487;-75
2022/10/28 10:08:15;;;;;;;13.40;7.90;;;;;;;17.40;88.06;101628.03;5051395;28;20024;-75
2022/10/28 10:10:56;;;;;;;24.80;9.05;;;;;;;17.45;87.66;101631.84;5046853;28;20030;-75
2022/10/28 10:13:27;;;;;;;20.02;8.88;;;;;;;17.55;87.04;101630.94;5046700;28;20058;-76
2022/10/28 10:15:57;;;;;;;17.05;8.88;;;;;;;17.68;86.98;101624.34;5034410;28;20511;-76
2022/10/28 10:18:27;;;;;;;17.45;7.78;;;;;;;17.74;86.78;101625.56;5036205;28;20029;-76
2022/10/28 10:20:56;;;;;;;16.42;8.10;;;;;;;17.79;86.02;101628.56;5039305;28;20031;-75
2022/10/28 10:23:30;;;;;;;18.60;8.10;;;;;;;17.87;85.85;101618.09;5040793;28;20156;-76
2022/10/28 10:26:04;;;;;;;16.85;8.10;;;;;;;17.94;85.36;101620.94;5036602;28;20033;-76
2022/10/28 10:28:32;;;;;;;17.02;7.80;;;;;;;18.02;84.79;101608.69;5053985;28;20029;-76
2022/10/28 10:31:00;;;;;;;16.73;7.83;;;;;;;18.10;85.33;101613.16;5053949;28;20036;-76
2022/10/28 10:33:30;;;;;;;;;;;;;;;18.16;86.94;101606.47;5034199;28;20112;-76
2022/10/28 10:36:19;;;;;;;13.95;7.45;;;;;;;18.26;85.16;101609.81;5036931;28;19920;-75
2022/10/28 10:38:50;;;;;;;19.20;7.53;;;;;;;18.32;83.48;101609.19;5032190;28;20025;-78
2022/10/28 10:41:37;;;;;;;16.00;7.75;;;;;;;18.35;84.24;101603.66;5056235;28;20043;-76
2022/10/28 10:44:29;;;;;;;17.20;7.65;;;;;;;18.41;84.30;101603.00;5055334;28;20086;-76
2022/10/28 10:47:01;;;;;;;14.75;7.82;;;;;;;18.49;83.66;101603.03;5054580;28;20468;-76
2022/10/28 10:49:27;;;;;;;14.13;6.65;;;;;;;18.55;82.86;101597.16;5043354;28;20032;-76
2022/10/28 10:51:56;;;;;;;13.80;6.82;;;;;;;18.58;82.79;101594.22;5059303;28;20056;-75
2022/10/28 10:54:23;;;;;;;15.02;7.40;;;;;;;18.64;82.82;101597.16;5036274;28;20056;-75
2022/10/28 10:56:49;;;;;;;17.58;6.95;;;;;;;18.72;81.99;101584.09;5026557;28;20036;-76
2022/10/28 10:59:21;;;;;;;16.02;6.68;;;;;;;18.85;81.54;101587.09;5044265;28;20066;-76
2022/10/28 11:01:47;;;;;;;21.92;6.70;;;;;;;18.97;80.35;101584.97;5036272;28;20033;-76
2022/10/28 11:04:18;;;;;;;13.35;6.85;;;;;;;18.99;80.69;101586.47;5057613;28;20029;-75
2022/10/28 11:06:56;;;;;;;16.23;6.28;;;;;;;19.00;79.83;101588.09;5036463;28;20035;-76
2022/10/28 11:09:28;;;;;;;;;;;;;;;19.06;82.83;101592.72;5039029;28;20108;-76
2022/10/28 11:11:54;;;;;;;18.23;6.32;;;;;;;19.06;79.65;101591.91;5042078;28;19909;-76
2022/10/28 11:14:24;;;;;;;13.90;6.05;;;;;;;19.14;78.62;101596.34;5038456;28;20017;-76
2022/10/28 11:16:56;;;;;;;14.10;5.65;;;;;;;19.27;77.63;101588.81;5040285;28;20020;-77
2022/10/28 11:19:27;;;;;;;15.57;5.85;;;;;;;19.30;77.61;101599.00;5042214;28;20067;-76
2022/10/28 11:22:14;;;;;;;16.05;5.10;;;;;;;19.34;77.84;101589.78;5046631;28;20047;-76
2022/10/28 11:24:48;;;;;;;12.93;5.25;;;;;;;19.40;77.34;101580.44;5044887;28;20066;-76
2022/10/28 11:27:32;;;;;;;15.73;5.72;;;;;;;19.44;76.59;101579.09;5046448;28;20075;-77
2022/10/28 11:29:59;;;;;;;12.50;5.10;;;;;;;19.48;76.71;101586.50;5044911;28;20024;-76